sensor_id;sensor_type;location;lat;lon;timestamp;P1;durP1;ratioP1;P2;durP2;ratioP2
5299;SDS011;2672;42.670;23.258;2023-02-26T00:01:37;12.80;;;3.73;;
5299;SDS011;2672;42.670;23.258;2023-02-26T00:04:04;8.43;;;3.07;;
5299;SDS011;2672;42.670;23.258;2023-02-26T00:06:32;12.53;;;3.73;;
5299;SDS011;2672;42.670;23.258;2023-02-26T00:08:58;14.80;;;5.13;;
5299;SDS011;2672;42.670;23.258;2023-02-26T00:11:24;8.43;;;4.40;;
5299;SDS011;2672;42.670;23.258;2023-02-26T00:13:50;11.80;;;3.43;;
5299;SDS011;2672;42.670;23.258;2023-02-26T00:16:34;22.87;;;4.53;;
5299;SDS011;2672;42.670;23.258;2023-02-26T00:19:19;15.57;;;4.10;;
5299;SDS011;2672;42.670;23.258;2023-02-26T00:21:48;8.43;;;3.70;;
5299;SDS011;2672;42.670;23.258;2023-02-26T00:24:27;4.63;;;2.60;;
5299;SDS011;2672;42.670;23.258;2023-02-26T00:27:19;17.93;;;3.13;;
5299;SDS011;2672;42.670;23.258;2023-02-26T00:29:46;10.20;;;3.97;;
5299;SDS011;2672;42.670;23.258;2023-02-26T00:32:15;19.13;;;3.20;;
5299;SDS011;2672;42.670;23.258;2023-02-26T00:34:45;21.10;;;3.93;;
5299;SDS011;2672;42.670;23.258;2023-02-26T00:37:16;16.17;;;4.07;;
5299;SDS011;2672;42.670;23.258;2023-02-26T00:40:21;9.30;;;3.10;;
5299;SDS011;2672;42.670;23.258;2023-02-26T00:42:38;12.87;;;4.23;;
5299;SDS011;2672;42.670;23.258;2023-02-26T00:45:04;25.13;;;3.83;;
5299;SDS011;2672;42.670;23.258;2023-02-26T00:47:39;10.67;;;3.40;;
5299;SDS011;2672;42.670;23.258;2023-02-26T00:55:19;10.70;;;3.83;;
5299;SDS011;2672;42.670;23.258;2023-02-26T00:57:45;10.60;;;3.80;;
5299;SDS011;2672;42.670;23.258;2023-02-26T01:00:12;19.30;;;3.40;;
5299;SDS011;2672;42.670;23.258;2023-02-26T01:02:39;16.37;;;4.20;;
5299;SDS011;2672;42.670;23.258;2023-02-26T01:05:04;8.80;;;2.60;;
5299;SDS011;2672;42.670;23.258;2023-02-26T01:07:32;8.57;;;2.87;;
5299;SDS011;2672;42.670;23.258;2023-02-26T01:10:02;6.50;;;3.33;;
5299;SDS011;2672;42.670;23.258;2023-02-26T01:12:27;6.67;;;2.80;;
5299;SDS011;2672;42.670;23.258;2023-02-26T01:14:52;12.83;;;3.13;;
5299;SDS011;2672;42.670;23.258;2023-02-26T01:17:28;4.87;;;2.50;;
5299;SDS011;2672;42.670;23.258;2023-02-26T01:19:59;8.20;;;3.13;;
5299;SDS011;2672;42.670;23.258;2023-02-26T01:22:49;16.80;;;3.67;;
5299;SDS011;2672;42.670;23.258;2023-02-26T01:25:12;14.83;;;4.70;;
5299;SDS011;2672;42.670;23.258;2023-02-26T01:27:38;8.23;;;3.13;;
5299;SDS011;2672;42.670;23.258;2023-02-26T01:30:04;22.50;;;3.40;;
5299;SDS011;2672;42.670;23.258;2023-02-26T01:35:07;7.00;;;2.90;;
5299;SDS011;2672;42.670;23.258;2023-02-26T01:37:37;11.23;;;3.83;;
5299;SDS011;2672;42.670;23.258;2023-02-26T01:42:49;12.57;;;3.60;;
5299;SDS011;2672;42.670;23.258;2023-02-26T01:45:16;8.47;;;3.50;;
5299;SDS011;2672;42.670;23.258;2023-02-26T01:47:48;21.63;;;3.30;;
5299;SDS011;2672;42.670;23.258;2023-02-26T01:50:17;17.93;;;3.07;;
5299;SDS011;2672;42.670;23.258;2023-02-26T01:55:14;2.93;;;1.83;;
5299;SDS011;2672;42.670;23.258;2023-02-26T01:57:40;5.80;;;2.73;;
5299;SDS011;2672;42.670;23.258;2023-02-26T02:00:05;10.37;;;3.30;;
5299;SDS011;2672;42.670;23.258;2023-02-26T02:02:31;17.60;;;3.40;;
5299;SDS011;2672;42.670;23.258;2023-02-26T02:04:56;12.30;;;3.10;;
5299;SDS011;2672;42.670;23.258;2023-02-26T02:07:23;16.00;;;3.20;;
5299;SDS011;2672;42.670;23.258;2023-02-26T02:09:49;6.60;;;3.23;;
5299;SDS011;2672;42.670;23.258;2023-02-26T02:14:52;10.17;;;2.50;;
5299;SDS011;2672;42.670;23.258;2023-02-26T02:30:06;12.93;;;3.60;;
5299;SDS011;2672;42.670;23.258;2023-02-26T02:32:37;7.17;;;2.50;;
5299;SDS011;2672;42.670;23.258;2023-02-26T02:37:31;8.80;;;3.10;;
5299;SDS011;2672;42.670;23.258;2023-02-26T02:40:03;10.20;;;3.30;;
5299;SDS011;2672;42.670;23.258;2023-02-26T02:42:34;5.13;;;2.37;;
5299;SDS011;2672;42.670;23.258;2023-02-26T02:45:02;6.07;;;2.63;;
5299;SDS011;2672;42.670;23.258;2023-02-26T02:47:29;4.87;;;2.93;;
5299;SDS011;2672;42.670;23.258;2023-02-26T02:52:24;7.20;;;3.10;;
5299;SDS011;2672;42.670;23.258;2023-02-26T02:54:53;5.40;;;3.17;;
5299;SDS011;2672;42.670;23.258;2023-02-26T02:57:20;18.70;;;2.90;;
5299;SDS011;2672;42.670;23.258;2023-02-26T02:59:51;8.10;;;3.00;;
5299;SDS011;2672;42.670;23.258;2023-02-26T03:04:42;7.30;;;3.20;;
5299;SDS011;2672;42.670;23.258;2023-02-26T03:07:07;9.70;;;2.13;;
5299;SDS011;2672;42.670;23.258;2023-02-26T03:09:33;9.07;;;2.33;;
5299;SDS011;2672;42.670;23.258;2023-02-26T03:11:58;11.00;;;3.27;;
5299;SDS011;2672;42.670;23.258;2023-02-26T03:14:23;12.30;;;3.00;;
5299;SDS011;2672;42.670;23.258;2023-02-26T03:21:58;7.03;;;1.70;;
5299;SDS011;2672;42.670;23.258;2023-02-26T03:24:30;12.30;;;3.63;;
5299;SDS011;2672;42.670;23.258;2023-02-26T03:27:10;10.87;;;2.80;;
5299;SDS011;2672;42.670;23.258;2023-02-26T03:32:05;3.90;;;2.00;;
5299;SDS011;2672;42.670;23.258;2023-02-26T03:34:50;8.10;;;3.23;;
5299;SDS011;2672;42.670;23.258;2023-02-26T03:37:22;12.97;;;2.80;;
5299;SDS011;2672;42.670;23.258;2023-02-26T03:39:50;9.17;;;2.77;;
5299;SDS011;2672;42.670;23.258;2023-02-26T03:44:58;11.90;;;3.90;;
5299;SDS011;2672;42.670;23.258;2023-02-26T03:47:25;27.13;;;3.53;;
5299;SDS011;2672;42.670;23.258;2023-02-26T03:52:19;11.03;;;3.50;;
5299;SDS011;2672;42.670;23.258;2023-02-26T03:54:48;11.40;;;3.63;;
5299;SDS011;2672;42.670;23.258;2023-02-26T03:57:15;11.60;;;4.03;;
5299;SDS011;2672;42.670;23.258;2023-02-26T03:59:41;9.30;;;2.97;;
5299;SDS011;2672;42.670;23.258;2023-02-26T04:02:11;11.23;;;3.17;;
5299;SDS011;2672;42.670;23.258;2023-02-26T04:04:40;8.90;;;3.10;;
5299;SDS011;2672;42.670;23.258;2023-02-26T04:07:07;9.93;;;2.80;;
5299;SDS011;2672;42.670;23.258;2023-02-26T04:09:32;22.97;;;3.00;;
5299;SDS011;2672;42.670;23.258;2023-02-26T04:11:58;15.43;;;3.40;;
5299;SDS011;2672;42.670;23.258;2023-02-26T04:14:23;11.90;;;3.30;;
5299;SDS011;2672;42.670;23.258;2023-02-26T04:16:48;10.70;;;2.77;;
5299;SDS011;2672;42.670;23.258;2023-02-26T04:19:14;8.00;;;2.83;;
5299;SDS011;2672;42.670;23.258;2023-02-26T04:21:39;24.23;;;3.40;;
5299;SDS011;2672;42.670;23.258;2023-02-26T04:24:04;11.10;;;2.90;;
5299;SDS011;2672;42.670;23.258;2023-02-26T04:26:30;14.83;;;4.20;;
5299;SDS011;2672;42.670;23.258;2023-02-26T04:28:55;11.83;;;2.40;;
5299;SDS011;2672;42.670;23.258;2023-02-26T04:31:20;18.23;;;4.73;;
5299;SDS011;2672;42.670;23.258;2023-02-26T04:33:45;16.40;;;4.90;;
5299;SDS011;2672;42.670;23.258;2023-02-26T04:36:11;20.87;;;3.63;;
5299;SDS011;2672;42.670;23.258;2023-02-26T04:38:36;5.63;;;2.97;;
5299;SDS011;2672;42.670;23.258;2023-02-26T04:41:01;10.20;;;3.13;;
5299;SDS011;2672;42.670;23.258;2023-02-26T04:43:27;15.37;;;3.50;;
5299;SDS011;2672;42.670;23.258;2023-02-26T04:45:52;15.90;;;3.23;;
5299;SDS011;2672;42.670;23.258;2023-02-26T04:48:17;17.17;;;3.60;;
5299;SDS011;2672;42.670;23.258;2023-02-26T04:50:43;9.63;;;3.20;;
5299;SDS011;2672;42.670;23.258;2023-02-26T04:53:08;13.80;;;2.60;;
5299;SDS011;2672;42.670;23.258;2023-02-26T04:55:34;18.87;;;2.90;;
5299;SDS011;2672;42.670;23.258;2023-02-26T04:57:59;9.37;;;2.67;;
5299;SDS011;2672;42.670;23.258;2023-02-26T05:00:24;9.13;;;2.90;;
5299;SDS011;2672;42.670;23.258;2023-02-26T05:02:50;14.30;;;2.50;;
5299;SDS011;2672;42.670;23.258;2023-02-26T05:05:15;16.33;;;2.50;;
5299;SDS011;2672;42.670;23.258;2023-02-26T05:07:40;12.30;;;2.50;;
5299;SDS011;2672;42.670;23.258;2023-02-26T05:10:06;4.47;;;2.10;;
5299;SDS011;2672;42.670;23.258;2023-02-26T05:12:31;3.87;;;1.63;;
5299;SDS011;2672;42.670;23.258;2023-02-26T05:14:56;13.60;;;3.20;;
5299;SDS011;2672;42.670;23.258;2023-02-26T05:17:21;10.43;;;2.47;;
5299;SDS011;2672;42.670;23.258;2023-02-26T05:19:47;12.33;;;2.53;;
5299;SDS011;2672;42.670;23.258;2023-02-26T05:22:12;10.63;;;3.93;;
5299;SDS011;2672;42.670;23.258;2023-02-26T05:24:38;8.43;;;2.90;;
5299;SDS011;2672;42.670;23.258;2023-02-26T05:27:03;9.77;;;2.67;;
5299;SDS011;2672;42.670;23.258;2023-02-26T05:29:28;10.73;;;2.03;;
5299;SDS011;2672;42.670;23.258;2023-02-26T05:31:53;18.87;;;2.67;;
5299;SDS011;2672;42.670;23.258;2023-02-26T05:34:19;8.40;;;2.40;;
5299;SDS011;2672;42.670;23.258;2023-02-26T05:36:44;12.57;;;3.17;;
5299;SDS011;2672;42.670;23.258;2023-02-26T05:39:09;16.13;;;2.93;;
5299;SDS011;2672;42.670;23.258;2023-02-26T05:41:34;16.90;;;2.87;;
5299;SDS011;2672;42.670;23.258;2023-02-26T05:44:00;36.27;;;3.17;;
5299;SDS011;2672;42.670;23.258;2023-02-26T05:46:26;16.67;;;3.70;;
5299;SDS011;2672;42.670;23.258;2023-02-26T05:48:51;14.63;;;3.30;;
5299;SDS011;2672;42.670;23.258;2023-02-26T05:51:17;5.03;;;2.30;;
5299;SDS011;2672;42.670;23.258;2023-02-26T05:53:42;9.83;;;2.57;;
5299;SDS011;2672;42.670;23.258;2023-02-26T05:56:07;9.67;;;2.80;;
5299;SDS011;2672;42.670;23.258;2023-02-26T05:58:33;11.43;;;3.10;;
5299;SDS011;2672;42.670;23.258;2023-02-26T06:00:58;11.40;;;2.47;;
5299;SDS011;2672;42.670;23.258;2023-02-26T06:03:24;4.43;;;1.60;;
5299;SDS011;2672;42.670;23.258;2023-02-26T06:05:50;10.93;;;2.73;;
5299;SDS011;2672;42.670;23.258;2023-02-26T06:08:15;15.80;;;2.80;;
5299;SDS011;2672;42.670;23.258;2023-02-26T06:10:42;7.33;;;2.30;;
5299;SDS011;2672;42.670;23.258;2023-02-26T06:13:08;16.60;;;3.63;;
5299;SDS011;2672;42.670;23.258;2023-02-26T06:15:33;8.10;;;2.67;;
5299;SDS011;2672;42.670;23.258;2023-02-26T06:17:58;9.57;;;2.70;;
5299;SDS011;2672;42.670;23.258;2023-02-26T06:20:24;11.43;;;3.20;;
5299;SDS011;2672;42.670;23.258;2023-02-26T06:22:49;12.77;;;3.03;;
5299;SDS011;2672;42.670;23.258;2023-02-26T06:25:14;7.90;;;2.80;;
5299;SDS011;2672;42.670;23.258;2023-02-26T06:27:40;8.07;;;2.27;;
5299;SDS011;2672;42.670;23.258;2023-02-26T06:30:06;15.53;;;3.70;;
5299;SDS011;2672;42.670;23.258;2023-02-26T06:32:32;10.97;;;2.63;;
5299;SDS011;2672;42.670;23.258;2023-02-26T06:34:57;7.97;;;2.93;;
5299;SDS011;2672;42.670;23.258;2023-02-26T06:37:23;7.83;;;2.23;;
5299;SDS011;2672;42.670;23.258;2023-02-26T06:39:48;14.00;;;2.43;;
5299;SDS011;2672;42.670;23.258;2023-02-26T06:42:35;18.90;;;3.90;;
5299;SDS011;2672;42.670;23.258;2023-02-26T06:45:02;18.90;;;3.50;;
5299;SDS011;2672;42.670;23.258;2023-02-26T06:47:28;13.30;;;1.70;;
5299;SDS011;2672;42.670;23.258;2023-02-26T06:49:56;18.70;;;2.63;;
5299;SDS011;2672;42.670;23.258;2023-02-26T06:52:26;17.70;;;2.57;;
5299;SDS011;2672;42.670;23.258;2023-02-26T06:54:52;11.57;;;2.70;;
5299;SDS011;2672;42.670;23.258;2023-02-26T06:57:17;19.80;;;3.10;;
5299;SDS011;2672;42.670;23.258;2023-02-26T06:59:42;16.83;;;2.07;;
5299;SDS011;2672;42.670;23.258;2023-02-26T07:02:11;14.47;;;2.50;;
5299;SDS011;2672;42.670;23.258;2023-02-26T07:04:39;17.20;;;2.93;;
5299;SDS011;2672;42.670;23.258;2023-02-26T07:07:04;8.80;;;2.63;;
5299;SDS011;2672;42.670;23.258;2023-02-26T07:09:30;15.77;;;3.27;;
5299;SDS011;2672;42.670;23.258;2023-02-26T07:11:55;17.67;;;3.67;;
5299;SDS011;2672;42.670;23.258;2023-02-26T07:14:20;12.27;;;3.60;;
5299;SDS011;2672;42.670;23.258;2023-02-26T07:16:45;9.30;;;3.00;;
5299;SDS011;2672;42.670;23.258;2023-02-26T07:19:11;27.70;;;2.80;;
5299;SDS011;2672;42.670;23.258;2023-02-26T07:21:36;7.07;;;2.73;;
5299;SDS011;2672;42.670;23.258;2023-02-26T07:24:01;23.30;;;3.00;;
5299;SDS011;2672;42.670;23.258;2023-02-26T07:26:26;13.93;;;3.67;;
5299;SDS011;2672;42.670;23.258;2023-02-26T07:28:52;14.43;;;4.43;;
5299;SDS011;2672;42.670;23.258;2023-02-26T07:31:17;15.00;;;3.97;;
5299;SDS011;2672;42.670;23.258;2023-02-26T07:33:42;18.10;;;3.70;;
5299;SDS011;2672;42.670;23.258;2023-02-26T07:36:08;23.60;;;4.03;;
5299;SDS011;2672;42.670;23.258;2023-02-26T07:38:33;15.07;;;2.87;;
5299;SDS011;2672;42.670;23.258;2023-02-26T07:40:58;11.70;;;3.67;;
5299;SDS011;2672;42.670;23.258;2023-02-26T07:43:23;8.43;;;2.47;;
5299;SDS011;2672;42.670;23.258;2023-02-26T07:45:51;8.30;;;2.57;;
5299;SDS011;2672;42.670;23.258;2023-02-26T07:48:17;21.43;;;3.10;;
5299;SDS011;2672;42.670;23.258;2023-02-26T07:50:42;18.63;;;3.20;;
5299;SDS011;2672;42.670;23.258;2023-02-26T07:53:09;16.00;;;3.77;;
5299;SDS011;2672;42.670;23.258;2023-02-26T07:55:34;19.73;;;3.80;;
5299;SDS011;2672;42.670;23.258;2023-02-26T07:58:00;12.33;;;3.17;;
5299;SDS011;2672;42.670;23.258;2023-02-26T08:00:25;15.23;;;3.20;;
5299;SDS011;2672;42.670;23.258;2023-02-26T08:02:59;20.87;;;2.93;;
5299;SDS011;2672;42.670;23.258;2023-02-26T08:05:25;12.33;;;3.50;;
5299;SDS011;2672;42.670;23.258;2023-02-26T08:07:50;23.20;;;3.20;;
5299;SDS011;2672;42.670;23.258;2023-02-26T08:10:15;11.70;;;3.00;;
5299;SDS011;2672;42.670;23.258;2023-02-26T08:12:41;22.67;;;3.77;;
5299;SDS011;2672;42.670;23.258;2023-02-26T08:15:06;15.83;;;3.03;;
5299;SDS011;2672;42.670;23.258;2023-02-26T08:17:31;20.57;;;3.67;;
5299;SDS011;2672;42.670;23.258;2023-02-26T08:19:57;20.00;;;3.10;;
5299;SDS011;2672;42.670;23.258;2023-02-26T08:22:22;16.03;;;3.10;;
5299;SDS011;2672;42.670;23.258;2023-02-26T08:24:48;12.57;;;3.33;;
5299;SDS011;2672;42.670;23.258;2023-02-26T08:27:13;11.43;;;2.93;;
5299;SDS011;2672;42.670;23.258;2023-02-26T08:29:38;22.10;;;3.27;;
5299;SDS011;2672;42.670;23.258;2023-02-26T08:32:04;28.20;;;4.17;;
5299;SDS011;2672;42.670;23.258;2023-02-26T08:34:29;10.10;;;3.03;;
5299;SDS011;2672;42.670;23.258;2023-02-26T08:36:55;22.50;;;4.60;;
5299;SDS011;2672;42.670;23.258;2023-02-26T08:39:20;20.40;;;3.47;;
5299;SDS011;2672;42.670;23.258;2023-02-26T08:41:45;18.90;;;3.40;;
5299;SDS011;2672;42.670;23.258;2023-02-26T08:44:11;23.87;;;3.10;;
5299;SDS011;2672;42.670;23.258;2023-02-26T08:46:36;14.10;;;3.23;;
5299;SDS011;2672;42.670;23.258;2023-02-26T08:49:01;20.57;;;3.13;;
5299;SDS011;2672;42.670;23.258;2023-02-26T08:51:27;18.77;;;3.87;;
5299;SDS011;2672;42.670;23.258;2023-02-26T08:53:52;13.77;;;3.80;;
5299;SDS011;2672;42.670;23.258;2023-02-26T08:56:18;20.87;;;4.37;;
5299;SDS011;2672;42.670;23.258;2023-02-26T08:58:43;13.70;;;3.47;;
5299;SDS011;2672;42.670;23.258;2023-02-26T09:01:08;10.90;;;4.20;;
5299;SDS011;2672;42.670;23.258;2023-02-26T09:03:34;20.90;;;4.17;;
5299;SDS011;2672;42.670;23.258;2023-02-26T09:05:59;12.83;;;3.63;;
5299;SDS011;2672;42.670;23.258;2023-02-26T09:08:24;26.27;;;6.70;;
5299;SDS011;2672;42.670;23.258;2023-02-26T09:10:50;15.07;;;4.30;;
5299;SDS011;2672;42.670;23.258;2023-02-26T09:13:15;19.27;;;4.83;;
5299;SDS011;2672;42.670;23.258;2023-02-26T09:15:41;19.50;;;3.00;;
5299;SDS011;2672;42.670;23.258;2023-02-26T09:18:06;17.70;;;3.67;;
5299;SDS011;2672;42.670;23.258;2023-02-26T09:20:35;16.60;;;3.70;;
5299;SDS011;2672;42.670;23.258;2023-02-26T09:23:01;23.67;;;3.63;;
5299;SDS011;2672;42.670;23.258;2023-02-26T09:25:26;16.83;;;3.30;;
5299;SDS011;2672;42.670;23.258;2023-02-26T09:27:52;14.47;;;3.80;;
5299;SDS011;2672;42.670;23.258;2023-02-26T09:30:17;16.67;;;4.33;;
5299;SDS011;2672;42.670;23.258;2023-02-26T09:32:43;30.73;;;5.00;;
5299;SDS011;2672;42.670;23.258;2023-02-26T09:35:08;27.13;;;6.73;;
5299;SDS011;2672;42.670;23.258;2023-02-26T09:37:34;14.87;;;5.80;;
5299;SDS011;2672;42.670;23.258;2023-02-26T09:39:59;21.27;;;6.33;;
5299;SDS011;2672;42.670;23.258;2023-02-26T09:42:30;21.50;;;6.30;;
5299;SDS011;2672;42.670;23.258;2023-02-26T09:44:57;28.93;;;6.93;;
5299;SDS011;2672;42.670;23.258;2023-02-26T09:47:26;17.57;;;5.23;;
5299;SDS011;2672;42.670;23.258;2023-02-26T09:49:58;14.07;;;5.57;;
5299;SDS011;2672;42.670;23.258;2023-02-26T09:57:35;17.77;;;5.23;;
5299;SDS011;2672;42.670;23.258;2023-02-26T10:00:21;19.00;;;4.80;;
5299;SDS011;2672;42.670;23.258;2023-02-26T10:05:38;14.80;;;3.20;;
5299;SDS011;2672;42.670;23.258;2023-02-26T10:08:07;21.80;;;3.83;;
5299;SDS011;2672;42.670;23.258;2023-02-26T10:10:54;14.13;;;3.17;;
5299;SDS011;2672;42.670;23.258;2023-02-26T10:16:20;15.17;;;3.13;;
5299;SDS011;2672;42.670;23.258;2023-02-26T10:19:01;23.50;;;3.87;;
5299;SDS011;2672;42.670;23.258;2023-02-26T10:21:29;23.30;;;4.47;;
5299;SDS011;2672;42.670;23.258;2023-02-26T10:23:57;22.10;;;5.10;;
5299;SDS011;2672;42.670;23.258;2023-02-26T10:26:26;15.43;;;3.70;;
5299;SDS011;2672;42.670;23.258;2023-02-26T10:29:01;15.13;;;4.13;;
5299;SDS011;2672;42.670;23.258;2023-02-26T10:36:37;25.63;;;4.53;;
5299;SDS011;2672;42.670;23.258;2023-02-26T10:39:29;15.03;;;4.50;;
5299;SDS011;2672;42.670;23.258;2023-02-26T10:41:50;11.03;;;3.77;;
5299;SDS011;2672;42.670;23.258;2023-02-26T10:49:23;20.57;;;3.50;;
5299;SDS011;2672;42.670;23.258;2023-02-26T10:51:54;9.90;;;2.40;;
5299;SDS011;2672;42.670;23.258;2023-02-26T10:56:45;12.07;;;4.63;;
5299;SDS011;2672;42.670;23.258;2023-02-26T10:59:10;9.03;;;3.50;;
5299;SDS011;2672;42.670;23.258;2023-02-26T11:01:36;25.03;;;4.97;;
5299;SDS011;2672;42.670;23.258;2023-02-26T11:04:10;23.20;;;4.73;;
5299;SDS011;2672;42.670;23.258;2023-02-26T11:06:42;19.23;;;4.17;;
5299;SDS011;2672;42.670;23.258;2023-02-26T11:09:28;13.40;;;4.40;;
5299;SDS011;2672;42.670;23.258;2023-02-26T11:12:03;12.03;;;4.00;;
5299;SDS011;2672;42.670;23.258;2023-02-26T11:14:29;12.20;;;3.30;;
5299;SDS011;2672;42.670;23.258;2023-02-26T11:16:56;10.63;;;3.47;;
5299;SDS011;2672;42.670;23.258;2023-02-26T11:19:29;10.30;;;4.30;;
5299;SDS011;2672;42.670;23.258;2023-02-26T11:21:55;22.87;;;3.70;;
5299;SDS011;2672;42.670;23.258;2023-02-26T11:26:49;11.40;;;3.93;;
5299;SDS011;2672;42.670;23.258;2023-02-26T11:29:17;14.67;;;3.30;;
5299;SDS011;2672;42.670;23.258;2023-02-26T11:31:44;16.30;;;3.83;;
5299;SDS011;2672;42.670;23.258;2023-02-26T11:34:11;20.17;;;3.60;;
5299;SDS011;2672;42.670;23.258;2023-02-26T11:36:38;8.20;;;2.70;;
5299;SDS011;2672;42.670;23.258;2023-02-26T11:41:58;12.90;;;4.40;;
5299;SDS011;2672;42.670;23.258;2023-02-26T11:44:32;23.53;;;4.70;;
5299;SDS011;2672;42.670;23.258;2023-02-26T11:46:58;21.63;;;3.93;;
5299;SDS011;2672;42.670;23.258;2023-02-26T11:49:26;21.83;;;4.40;;
5299;SDS011;2672;42.670;23.258;2023-02-26T11:52:03;22.03;;;4.80;;
5299;SDS011;2672;42.670;23.258;2023-02-26T11:54:29;15.83;;;3.97;;
5299;SDS011;2672;42.670;23.258;2023-02-26T11:57:02;18.07;;;4.70;;
5299;SDS011;2672;42.670;23.258;2023-02-26T11:59:30;15.33;;;4.00;;
5299;SDS011;2672;42.670;23.258;2023-02-26T12:01:56;12.17;;;3.80;;
5299;SDS011;2672;42.670;23.258;2023-02-26T12:04:25;15.60;;;5.23;;
5299;SDS011;2672;42.670;23.258;2023-02-26T12:06:52;37.20;;;4.30;;
5299;SDS011;2672;42.670;23.258;2023-02-26T12:09:18;7.97;;;2.57;;
5299;SDS011;2672;42.670;23.258;2023-02-26T12:22:23;23.10;;;4.07;;
5299;SDS011;2672;42.670;23.258;2023-02-26T12:24:54;22.70;;;3.17;;
5299;SDS011;2672;42.670;23.258;2023-02-26T12:42:35;11.00;;;3.50;;
5299;SDS011;2672;42.670;23.258;2023-02-26T12:53:23;17.33;;;3.73;;
5299;SDS011;2672;42.670;23.258;2023-02-26T13:01:28;13.80;;;3.60;;
5299;SDS011;2672;42.670;23.258;2023-02-26T13:06:57;15.60;;;3.50;;
5299;SDS011;2672;42.670;23.258;2023-02-26T13:09:31;25.47;;;5.43;;
5299;SDS011;2672;42.670;23.258;2023-02-26T13:17:08;17.13;;;3.80;;
5299;SDS011;2672;42.670;23.258;2023-02-26T13:19:45;16.53;;;4.57;;
5299;SDS011;2672;42.670;23.258;2023-02-26T13:24:45;12.20;;;4.00;;
5299;SDS011;2672;42.670;23.258;2023-02-26T13:27:13;35.73;;;3.60;;
5299;SDS011;2672;42.670;23.258;2023-02-26T13:32:22;16.23;;;4.07;;
5299;SDS011;2672;42.670;23.258;2023-02-26T13:37:20;18.53;;;6.30;;
5299;SDS011;2672;42.670;23.258;2023-02-26T13:39:49;18.90;;;4.00;;
5299;SDS011;2672;42.670;23.258;2023-02-26T13:42:41;17.07;;;3.80;;
5299;SDS011;2672;42.670;23.258;2023-02-26T13:52:48;13.50;;;3.57;;
5299;SDS011;2672;42.670;23.258;2023-02-26T13:57:58;16.30;;;3.80;;
5299;SDS011;2672;42.670;23.258;2023-02-26T14:00:40;31.53;;;4.40;;
5299;SDS011;2672;42.670;23.258;2023-02-26T14:03:10;20.03;;;4.00;;
5299;SDS011;2672;42.670;23.258;2023-02-26T14:10:43;13.20;;;3.33;;
5299;SDS011;2672;42.670;23.258;2023-02-26T14:13:20;17.73;;;3.87;;
5299;SDS011;2672;42.670;23.258;2023-02-26T14:15:59;20.40;;;3.10;;
5299;SDS011;2672;42.670;23.258;2023-02-26T14:18:28;13.93;;;4.13;;
5299;SDS011;2672;42.670;23.258;2023-02-26T14:21:25;33.00;;;3.90;;
5299;SDS011;2672;42.670;23.258;2023-02-26T14:23:39;40.57;;;5.50;;
5299;SDS011;2672;42.670;23.258;2023-02-26T14:26:10;28.73;;;4.30;;
5299;SDS011;2672;42.670;23.258;2023-02-26T14:28:44;16.30;;;4.43;;
5299;SDS011;2672;42.670;23.258;2023-02-26T14:33:43;13.80;;;3.90;;
5299;SDS011;2672;42.670;23.258;2023-02-26T14:38:52;17.57;;;3.90;;
5299;SDS011;2672;42.670;23.258;2023-02-26T14:44:14;16.53;;;3.87;;
5299;SDS011;2672;42.670;23.258;2023-02-26T14:46:42;19.17;;;4.00;;
5299;SDS011;2672;42.670;23.258;2023-02-26T14:49:13;27.17;;;5.50;;
5299;SDS011;2672;42.670;23.258;2023-02-26T15:11:54;11.30;;;4.10;;
5299;SDS011;2672;42.670;23.258;2023-02-26T15:16:53;18.20;;;4.23;;
5299;SDS011;2672;42.670;23.258;2023-02-26T15:21:54;13.90;;;4.30;;
5299;SDS011;2672;42.670;23.258;2023-02-26T15:24:23;14.00;;;4.07;;
5299;SDS011;2672;42.670;23.258;2023-02-26T15:26:53;9.10;;;2.63;;
5299;SDS011;2672;42.670;23.258;2023-02-26T15:29:20;9.10;;;3.60;;
5299;SDS011;2672;42.670;23.258;2023-02-26T15:31:54;15.57;;;4.00;;
5299;SDS011;2672;42.670;23.258;2023-02-26T15:34:21;29.43;;;7.37;;
5299;SDS011;2672;42.670;23.258;2023-02-26T15:36:48;13.27;;;5.20;;
5299;SDS011;2672;42.670;23.258;2023-02-26T15:39:17;17.87;;;5.00;;
5299;SDS011;2672;42.670;23.258;2023-02-26T15:41:43;18.27;;;4.87;;
5299;SDS011;2672;42.670;23.258;2023-02-26T15:44:12;19.40;;;3.97;;
5299;SDS011;2672;42.670;23.258;2023-02-26T15:46:40;9.90;;;4.10;;
5299;SDS011;2672;42.670;23.258;2023-02-26T15:49:07;14.20;;;4.27;;
5299;SDS011;2672;42.670;23.258;2023-02-26T15:51:34;19.07;;;5.67;;
5299;SDS011;2672;42.670;23.258;2023-02-26T15:53:59;21.07;;;5.30;;
5299;SDS011;2672;42.670;23.258;2023-02-26T15:56:30;17.20;;;6.83;;
5299;SDS011;2672;42.670;23.258;2023-02-26T15:58:58;18.90;;;6.77;;
5299;SDS011;2672;42.670;23.258;2023-02-26T16:01:25;25.50;;;8.00;;
5299;SDS011;2672;42.670;23.258;2023-02-26T16:03:53;26.67;;;9.30;;
5299;SDS011;2672;42.670;23.258;2023-02-26T16:06:26;26.40;;;9.83;;
5299;SDS011;2672;42.670;23.258;2023-02-26T16:09:14;21.97;;;8.00;;
5299;SDS011;2672;42.670;23.258;2023-02-26T16:11:40;23.03;;;8.50;;
5299;SDS011;2672;42.670;23.258;2023-02-26T16:14:08;24.63;;;8.80;;
5299;SDS011;2672;42.670;23.258;2023-02-26T16:16:40;23.70;;;11.20;;
5299;SDS011;2672;42.670;23.258;2023-02-26T16:19:07;24.77;;;8.30;;
5299;SDS011;2672;42.670;23.258;2023-02-26T16:21:34;27.27;;;11.73;;
5299;SDS011;2672;42.670;23.258;2023-02-26T16:24:03;19.83;;;6.60;;
5299;SDS011;2672;42.670;23.258;2023-02-26T16:26:32;17.20;;;6.50;;
5299;SDS011;2672;42.670;23.258;2023-02-26T16:29:14;25.33;;;7.30;;
5299;SDS011;2672;42.670;23.258;2023-02-26T16:31:45;23.73;;;7.17;;
5299;SDS011;2672;42.670;23.258;2023-02-26T16:45:53;12.53;;;5.50;;
5299;SDS011;2672;42.670;23.258;2023-02-26T16:48:22;19.90;;;6.30;;
5299;SDS011;2672;42.670;23.258;2023-02-26T16:50:54;18.43;;;5.40;;
5299;SDS011;2672;42.670;23.258;2023-02-26T16:53:20;8.47;;;4.70;;
5299;SDS011;2672;42.670;23.258;2023-02-26T16:55:49;23.07;;;5.20;;
5299;SDS011;2672;42.670;23.258;2023-02-26T16:58:20;18.03;;;5.80;;
5299;SDS011;2672;42.670;23.258;2023-02-26T17:00:52;24.43;;;6.10;;
5299;SDS011;2672;42.670;23.258;2023-02-26T17:03:22;28.73;;;6.93;;
5299;SDS011;2672;42.670;23.258;2023-02-26T17:05:52;26.30;;;6.43;;
5299;SDS011;2672;42.670;23.258;2023-02-26T17:08:50;22.27;;;6.67;;
5299;SDS011;2672;42.670;23.258;2023-02-26T17:11:21;19.10;;;6.50;;
5299;SDS011;2672;42.670;23.258;2023-02-26T17:16:49;24.40;;;7.13;;
5299;SDS011;2672;42.670;23.258;2023-02-26T17:19:15;22.20;;;5.90;;
5299;SDS011;2672;42.670;23.258;2023-02-26T17:21:43;30.80;;;7.70;;
5299;SDS011;2672;42.670;23.258;2023-02-26T17:24:14;23.10;;;6.70;;
5299;SDS011;2672;42.670;23.258;2023-02-26T17:26:40;25.47;;;6.33;;
5299;SDS011;2672;42.670;23.258;2023-02-26T17:29:06;18.47;;;5.33;;
5299;SDS011;2672;42.670;23.258;2023-02-26T17:31:34;22.77;;;5.23;;
5299;SDS011;2672;42.670;23.258;2023-02-26T17:33:59;22.37;;;5.87;;
5299;SDS011;2672;42.670;23.258;2023-02-26T17:36:24;19.00;;;6.17;;
5299;SDS011;2672;42.670;23.258;2023-02-26T17:38:50;14.47;;;4.60;;
5299;SDS011;2672;42.670;23.258;2023-02-26T17:41:16;15.20;;;5.20;;
5299;SDS011;2672;42.670;23.258;2023-02-26T17:43:42;30.30;;;5.43;;
5299;SDS011;2672;42.670;23.258;2023-02-26T17:46:08;22.10;;;5.30;;
5299;SDS011;2672;42.670;23.258;2023-02-26T17:48:34;29.13;;;6.13;;
5299;SDS011;2672;42.670;23.258;2023-02-26T17:50:59;21.80;;;5.10;;
5299;SDS011;2672;42.670;23.258;2023-02-26T17:53:25;23.47;;;5.20;;
5299;SDS011;2672;42.670;23.258;2023-02-26T17:55:57;16.87;;;5.23;;
5299;SDS011;2672;42.670;23.258;2023-02-26T17:58:31;20.90;;;4.50;;
5299;SDS011;2672;42.670;23.258;2023-02-26T18:00:57;13.30;;;4.63;;
5299;SDS011;2672;42.670;23.258;2023-02-26T18:03:23;20.33;;;5.30;;
5299;SDS011;2672;42.670;23.258;2023-02-26T18:05:48;14.57;;;4.80;;
5299;SDS011;2672;42.670;23.258;2023-02-26T18:08:21;19.90;;;4.87;;
5299;SDS011;2672;42.670;23.258;2023-02-26T18:10:47;13.57;;;5.00;;
5299;SDS011;2672;42.670;23.258;2023-02-26T18:13:12;22.40;;;6.00;;